Weather at Zawiszyn Airfield

Public forecast

Using degrees Celsius for public forecast. Weather courtesy of forecast.io.

Closest aviation weather report (METAR) to Zawiszyn Airfield

Closest report is Hrodna Airport, 67.2 nm (124.5 km) SE.

2024/07/21 07:00 (retrieved 26 minutes ago)

UMMG 210700Z VRB01MPS CAVOK 24/14 Q1011 NOSIG

Closest aviation forecast (TAF) to Zawiszyn Airfield

Closest forecast is Kaunas International Airport, 67.7 nm (125.4 km) NE.

2024/07/21 06:07 (retrieved 1 hour ago)

TAF EYKA 210505Z 2106/2206 VRB05KT 9000 NSC TEMPO 2109/2118 BKN050CB PROB40 TEMPO 2111/2118 VRB15KT TSRA